Tiempo atmosférico en la estación meteorológica de Amieva, Panizales, Asturias (360 m.)



Fecha
DESCASC
Temp. máxima en grados centígrados (hora)
DESCASC
Temp. mínima en grados centígrados (hora)
DESCASC
Temp. media en grados centígrados
DESCASC
Racha de viento máxima en m/sg (hora)
DESCASC
Velocidad máxima media en intervalos de 10 minutos(hora)
DESCASC
Precipitaciones diarias en mm
DESCASC
Precipitaciones de 00:00 a 06:00 en mm
DESCASC
Precipitaciones de 06:00 a 12:00 en mm
DESCASC
Precipitaciones de 12:00 a 18:00 en mm
DESCASC
Precipitaciones de 18:00 a 24:00 en mm
DESCASC
21-02-2019 20.1 (15:50) 10.1 (04:30) 15.1 12.5 (13:50) 6.67 (07:30) 0 0 0 0 0
20-02-2019 17.2 (15:50) 1.6 (07:10) 9.4 11.67 (13:50) 6.67 (14:10) 0 0 0 0 0
19-02-2019 12.9 (14:00) 2.7 (00:10) 7.8 6.11 (14:30) 3.33 (13:40) 1 0.6 0.2 0 0.2
18-02-2019 9.4 (12:30) 2.8 (23:50) 6.1 4.17 (13:30) 1.67 (13:20) 17.8 0 0 3.6 14.2
17-02-2019 18.5 (15:50) 6.3 (00:00) 12.4 14.72 (12:10) 6.94 (10:50) 0 0 0 0 0
16-02-2019 22.6 (14:40) 6.8 (00:00) 14.7 10.83 (23:20) 5.83 (23:20) 0 0 0 0 0
15-02-2019 23 (15:00) 8.3 (00:00) 15.7 12.78 (00:10) 6.67 (01:30) 0 0 0 0 0
14-02-2019 22.5 (15:10) 4.1 (00:00) 13.3 11.11 (15:20) 6.39 (14:10) 0 0 0 0 0
13-02-2019 18.7 (16:00) 3 (00:00) 10.9 5.83 (16:00) 2.78 (15:20) 0 0 0 0 0
12-02-2019 15.3 (15:40) 0.8 (00:00) 8.1 4.72 (15:10) 2.78 (14:50) 0 0 0 0 0
11-02-2019 13 (15:10) 2.1 (00:00) 7.5 5.83 (17:00) 3.33 (15:10) 0 0 0 0 0
10-02-2019 14.6 (07:50) 5.2 (00:00) 9.9 22.22 (03:10) 8.89 (02:40) 5 0 3.6 0.6 0.8
09-02-2019 15.2 (13:40) 10.8 (00:00) 13 16.39 (21:20) 7.5 (16:10) 0 0 0 0 0
08-02-2019 14.8 (17:50) 2.2 (00:00) 8.5 11.11 (20:50) 5.56 (20:30) 0 0 0 0 0
07-02-2019 13.1 (15:00) 5.3 (00:00) 9.2 5 (14:20) 3.06 (14:30) 0.6 0 0.6 0 0
06-02-2019 16.3 (15:00) 3.6 (00:00) 9.9 5.28 (14:40) 2.78 (14:50) 0 0 0 0 0
05-02-2019 16.9 (14:50) 4.6 (00:00) 10.7 7.5 (15:10) 3.61 (15:30) 0 0 0 0 0
04-02-2019 13.1 (14:20) 0.4 (00:00) 6.8 5.56 (13:30) 3.61 (13:40) 0.4 0 0 0.4 0
03-02-2019 10.3 (15:30) 0.1 (00:00) 5.2 6.11 (15:50) 2.78 (16:00) 0.8 0.6 0.2 0 0
02-02-2019 5.2 (01:10) 1.4 (00:00) 3.3 10 (04:20) 3.89 (09:50) 27.2 12.8 7.4 3.6 3.4
01-02-2019 9 (06:20) 3.7 (00:00) 6.4 12.78 (08:50) 6.67 (06:10) 26.8 0 0.6 0.4 25.8
31-01-2019 16.8 (14:10) 7.6 (00:00) 12.2 13.89 (01:30) 7.78 (00:50) 12.6 3 0.2 7.2 2.2
30-01-2019 10.9 (13:40) 4 (00:00) 7.4 13.89 (17:20) 7.5 (21:10) 4.2 0 0 0.8 3.4
29-01-2019 11.5 (11:10) 4.9 (00:00) 8.2 12.5 (13:40) 6.11 (09:20) 10.8 0 0.2 6.8 3.8
28-01-2019 9.3 (06:40) 5.5 (00:00) 7.4 9.44 (08:40) 3.33 (12:40) 14.2 0.8 8.2 5 0.2
27-01-2019 8 (03:30) 5.4 (00:00) 6.7 9.72 (03:20) 3.33 (10:10) 12 4.2 4.4 2.6 0.8
26-01-2019 13.5 (15:40) 1.6 (00:00) 7.6 4.72 (16:20) 2.5 (16:30) 0 0 0 0 0
25-01-2019 10.3 (15:40) 6.7 (00:00) 8.5 4.17 (16:40) 1.39 (16:40) 3.2 2 1.2 0 0
24-01-2019 10.5 (05:20) 8.7 (00:00) 9.6 11.11 (02:50) 3.33 (00:50) 43.2 21 11.4 8.8 2

Gráficas

Temp. máximas Temp. mínimas Temp. medias Precipitaciones Rachas de viento máximas Velocidades máximas media en intervalos de 10 minutos

Datos horarios

Fecha y hora oficial Temperatura (ºC) Velocidad del viento (km/h) Dirección del viento Racha (km/h) Dirección de racha Precipitación (mm) Presión (hPa) Tendencia (hPa) Humedad (%)
2019-02-22 23:00:00 12.5 3 Nordeste 18 Nordeste 0 -- -- 38
2019-02-22 22:00:00 16.8 9 Sudeste 35 Sudeste 0 -- -- 27
2019-02-22 21:00:00 17.6 18 Este 32 Este 0 -- -- 26
2019-02-22 20:00:00 18.1 12 Sudeste 24 Este 0 -- -- 27
2019-02-22 19:00:00 19 9 Sudeste 24 Sur 0 -- -- 26
2019-02-22 18:00:00 20.9 13 Sudeste 32 Sudeste 0 -- -- 22
2019-02-22 17:00:00 21.8 19 Sudeste 39 Sur 0 -- -- 22
2019-02-22 16:00:00 22.1 22 Sudeste 40 Sur 0 -- -- 23
2019-02-22 15:00:00 22 23 Sudeste 41 Sur 0 -- -- 25
2019-02-22 14:00:00 21.7 19 Sur 44 Sur 0 -- -- 25
2019-02-22 13:00:00 20.8 20 Sudeste 40 Sudeste 0 -- -- 26
2019-02-22 12:00:00 20.1 15 Sudeste 32 Sudeste 0 -- -- 28
2019-02-22 11:00:00 18.7 11 Sudeste 30 Sudeste 0 -- -- 31
2019-02-22 10:00:00 16.7 12 Sudeste 30 Sur 0 -- -- 35
2019-02-22 09:00:00 12 7 Sudeste 18 Sudeste 0 -- -- 47
2019-02-22 08:00:00 14 12 Sudeste 30 Sudeste 0 -- -- 41
2019-02-22 07:00:00 15.4 19 Sudeste 32 Sudeste 0 -- -- 38
2019-02-22 06:00:00 15.4 17 Sudeste 32 Sudeste 0 -- -- 38
2019-02-22 05:00:00 15.4 19 Sudeste 31 Sudeste 0 -- -- 39
2019-02-22 04:00:00 15.5 17 Sudeste 31 Sudeste 0 -- -- 39
2019-02-22 03:00:00 15.7 15 Sudeste 28 Sudeste 0 -- -- 39
2019-02-22 02:00:00 16 17 Sudeste 27 Sudeste 0 -- -- 39
2019-02-22 01:00:00 15.9 15 Sudeste 28 Sudeste 0 -- -- 39
2019-02-22 00:00:00 16 16 Sudeste 36 Este 0 -- -- 40
2019-02-21 23:00:00 16.1 17 Este 36 Este 0 -- -- 40
2019-02-21 22:00:00 15.9 15 Este 32 Este 0 -- -- 40
2019-02-21 21:00:00 15.3 9 Sudeste 25 Sudeste 0 -- -- 39
2019-02-21 20:00:00 15.4 7 Sudeste 19 Este 0 -- -- 40
2019-02-21 19:00:00 16.7 10 Sudeste 23 Este 0 -- -- 38
2019-02-21 18:00:00 18.4 14 Sudeste 40 Sur 0 -- -- 35
2019-02-21 17:00:00 19.6 19 Sur 32 Sur 0 -- -- 33
2019-02-21 16:00:00 20.1 17 Sur 38 Sur 0 -- -- 33
2019-02-21 15:00:00 19.6 15 Sudeste 39 Sur 0 -- -- 36
2019-02-21 14:00:00 18.7 19 Sudeste 45 Sudeste 0 -- -- 38
2019-02-21 13:00:00 18.6 16 Sudeste 36 Sudeste 0 -- -- 38
2019-02-21 12:00:00 17.3 18 Sudeste 32 Sudeste 0 -- -- 39
2019-02-21 11:00:00 16.1 12 Sudeste 32 Sudeste 0 -- -- 42
2019-02-21 10:00:00 14.3 18 Sudeste 42 Este 0 -- -- 46
2019-02-21 09:00:00 12.8 19 Sudeste 40 Sudeste 0 -- -- 50
2019-02-21 08:00:00 13 22 Sudeste 38 Este 0 -- -- 49
2019-02-21 07:00:00 13 21 Sudeste 36 Sudeste 0 -- -- 49
2019-02-21 06:00:00 12.9 19 Sudeste 31 Sudeste 0 -- -- 48
2019-02-21 05:00:00 11.3 13 Sudeste 30 Sudeste 0 -- -- 52
2019-02-21 04:00:00 11.2 7 Sudeste 33 Sudeste 0 -- -- 51
2019-02-21 03:00:00 12 15 Sudeste 28 Sudeste 0 -- -- 47
2019-02-21 02:00:00 11.9 15 Sudeste 34 Este 0 -- -- 48
2019-02-21 01:00:00 12 15 Sudeste 33 Este 0 -- -- 48
2019-02-21 00:00:00 11.9 14 Sudeste 35 Sudeste 0 -- -- 49
2019-02-20 23:00:00 12.4 19 Sudeste 39 Este 0 -- -- 49
2019-02-20 22:00:00 12.4 17 Sudeste 36 Sudeste 0 -- -- 49
2019-02-20 21:00:00 12.8 17 Sudeste 31 Sudeste 0 -- -- 48
2019-02-20 20:00:00 12.9 13 Sudeste 25 Sudeste 0 -- -- 48
2019-02-20 19:00:00 12.4 5 Sudeste 14 Este 0 -- -- 51
2019-02-20 18:00:00 15 2 Sur 23 Sudeste 0 -- -- 55
2019-02-20 17:00:00 16.4 10 Sur 26 Sur 0 -- -- 43
2019-02-20 16:00:00 17.1 14 Sudeste 28 Sur 0 -- -- 37
2019-02-20 15:00:00 16.9 17 Sudeste 35 Sur 0 -- -- 37
2019-02-20 14:00:00 16.3 21 Sudeste 42 Sur 0 -- -- 39
2019-02-20 13:00:00 15.5 15 Sudeste 28 Sur 0 -- -- 42
2019-02-20 12:00:00 9.2 6 Sudoeste 24 Este 0 -- -- 82
2019-02-20 11:00:00 6.3 3 Sur 10 Sudoeste 0 -- -- 94
2019-02-20 10:00:00 4.1 3 Sur 7 Sudoeste 0 -- -- 99
2019-02-20 09:00:00 2.2 2 Norte 8 Nordeste 0 -- -- 100
2019-02-20 08:00:00 2.1 0 Calma 4 Noroeste 0 -- -- 100
2019-02-20 07:00:00 1.7 0 Calma 4 Norte 0 -- -- 100
2019-02-20 06:00:00 2.1 2 Noroeste 4 Noroeste 0 -- -- 99
2019-02-20 05:00:00 2.4 0 Calma 5 Sudoeste 0 -- -- 100
2019-02-20 04:00:00 2.6 0 Calma 5 Sudoeste 0 -- -- 100
2019-02-20 03:00:00 2.9 0 Calma 5 Sudoeste 0 -- -- 100
2019-02-20 02:00:00 3.1 0 Calma 3 Sudoeste 0 -- -- 99
2019-02-20 01:00:00 3.6 0 Calma 3 Sudoeste 0 -- -- 100
2019-02-20 00:00:00 3.8 0 Calma 5 Sudoeste 0 -- -- 99
2019-02-19 23:00:00 4.3 0 Calma 4 Sudoeste 0 -- -- 99
2019-02-19 22:00:00 4.8 0 Calma 3 Sur 0 -- -- 98
2019-02-19 21:00:00 5.5 0 Calma 4 Sudoeste 0.2 -- -- 97
2019-02-19 20:00:00 6.2 0 Calma 5 Sur 0 -- -- 95
2019-02-19 19:00:00 8.2 0 Calma 6 Oeste 0 -- -- 88
2019-02-19 18:00:00 10 3 Sudoeste 9 Sur 0 -- -- 83
2019-02-19 17:00:00 10.5 4 Sudeste 15 Oeste 0 -- -- 79
2019-02-19 16:00:00 11.5 4 Oeste 16 Sudoeste 0 -- -- 73
2019-02-19 15:00:00 12.1 8 Oeste 22 Oeste 0 -- -- 70
2019-02-19 14:00:00 12.9 12 Sudoeste 21 Sudoeste 0 -- -- 70
2019-02-19 13:00:00 11.4 9 Sudoeste 15 Sudoeste 0 -- -- 75
2019-02-19 12:00:00 9.6 5 Sudoeste 12 Sudoeste 0 -- -- 79
2019-02-19 11:00:00 7.4 4 Sur 8 Sur 0 -- -- 89
2019-02-19 10:00:00 5.3 0 Calma 4 Oeste 0 -- -- 95
2019-02-19 09:00:00 4.6 0 Calma 4 Noroeste 0 -- -- 97
2019-02-19 08:00:00 4.3 0 Calma 4 Sudoeste 0.2 -- -- 98
2019-02-19 07:00:00 4.2 0 Calma 5 Sur 0 -- -- 97
2019-02-19 06:00:00 4.1 0 Calma 4 Sudoeste 0.2 -- -- 95
2019-02-19 05:00:00 3.9 0 Calma 4 Nordeste 0 -- -- 95
2019-02-19 04:00:00 3.7 0 Calma 7 Nordeste 0 -- -- 95
2019-02-19 03:00:00 3.4 3 Sur 7 Noroeste 0 -- -- 95
2019-02-19 02:00:00 3.1 5 Noroeste 10 Sudoeste 0 -- -- 97
2019-02-19 01:00:00 2.8 4 Sudoeste 9 Sur 0.4 -- -- 97
2019-02-19 00:00:00 2.8 4 Sudeste 12 Sudeste 1.4 -- -- 96
2019-02-18 23:00:00 3.6 6 Sudeste 10 Sudeste 3.4 -- -- 93
2019-02-18 22:00:00 5 0 Calma 4 Sudeste 3.6 -- -- 92
2019-02-18 21:00:00 6.1 0 Calma 5 Oeste 2 -- -- 96
2019-02-18 20:00:00 6.7 0 Calma 6 Norte 1.8 -- -- 96
2019-02-18 19:00:00 7 2 Nordeste 11 Norte 2 -- -- 96
2019-02-18 18:00:00 8.1 3 Norte 12 Norte 2 -- -- 91
2019-02-18 17:00:00 8.5 2 Oeste 7 Sudoeste 1.6 -- -- 99
2019-02-18 16:00:00 8.6 5 Oeste 10 Sudoeste 0 -- -- 99
2019-02-18 15:00:00 8.9 3 Oeste 12 Noroeste 0 -- -- 96
2019-02-18 14:00:00 9.3 3 Sudoeste 15 Sudoeste 0 -- -- 92
2019-02-18 13:00:00 9.3 3 Sur 7 Oeste 0 -- -- 90
2019-02-18 12:00:00 9 2 Sudoeste 8 Sudoeste 0 -- -- 87
2019-02-18 11:00:00 8.3 0 Calma 5 Norte 0 -- -- 84
2019-02-18 10:00:00 7.9 0 Calma 2 Oeste 0 -- -- 83
2019-02-18 09:00:00 7.4 0 Calma 4 Norte 0 -- -- 87
2019-02-18 08:00:00 7.2 0 Calma 3 Sur 0 -- -- 85
2019-02-18 07:00:00 7.1 0 Calma 2 Sudeste 0 -- -- 85
2019-02-18 06:00:00 6.7 0 Calma 3 Nordeste 0 -- -- 80
2019-02-18 05:00:00 6.2 0 Calma 5 Norte 0 -- -- 82
2019-02-18 04:00:00 6 0 Calma 6 Noroeste 0 -- -- 81
2019-02-18 03:00:00 6.3 0 Calma 6 Oeste 0 -- -- 80
2019-02-18 02:00:00 6.2 0 Calma 6 Sudoeste 0 -- -- 79
2019-02-18 01:00:00 6 0 Calma 3 Nordeste 0 -- -- 81
2019-02-18 00:00:00 6.3 0 Calma 4 Oeste 0 -- -- 77
2019-02-17 23:00:00 7 0 Calma 3 Oeste 0 -- -- 76
2019-02-17 22:00:00 7.8 2 Nordeste 4 Nordeste 0 -- -- 77
2019-02-17 21:00:00 8.1 0 Calma 4 Noroeste 0 -- -- 72
2019-02-17 20:00:00 9.3 0 Calma 5 Oeste 0 -- -- 63
2019-02-17 19:00:00 11.3 2 Nordeste 6 Este 0 -- -- 56
2019-02-17 18:00:00 15.1 4 Noroeste 14 Oeste 0 -- -- 45
2019-02-17 17:00:00 17.9 3 Sudoeste 12 Nordeste 0 -- -- 32
2019-02-17 16:00:00 18.3 5 Sur 24 Sur 0 -- -- 32
2019-02-17 15:00:00 18 12 Sur 40 Sur 0 -- -- 33
2019-02-17 14:00:00 17.8 18 Sur 49 Sur 0 -- -- 34
2019-02-17 13:00:00 17.5 19 Sudeste 53 Este 0 -- -- 37
2019-02-17 12:00:00 17.8 18 Sudeste 49 Sur 0 -- -- 37
2019-02-17 11:00:00 17.1 21 Sudeste 49 Sudeste 0 -- -- 36
2019-02-17 10:00:00 16 15 Sudeste 50 Sur 0 -- -- 39
2019-02-17 09:00:00 14.8 18 Sudeste 46 Este 0 -- -- 40
2019-02-17 08:00:00 14.7 14 Este 35 Este 0 -- -- 40
2019-02-17 07:00:00 14.9 11 Sudeste 28 Este 0 -- -- 39
2019-02-17 06:00:00 15.3 11 Este 28 Este 0 -- -- 36
2019-02-17 05:00:00 16.2 14 Este 38 Este 0 -- -- 32
2019-02-17 04:00:00 16.4 14 Este 37 Este 0 -- -- 31
2019-02-17 03:00:00 16.2 14 Este 36 Este 0 -- -- 34
2019-02-17 02:00:00 16.4 16 Este 36 Nordeste 0 -- -- 35
2019-02-17 01:00:00 16.6 15 Este 33 Este 0 -- -- 36
2019-02-17 00:00:00 16.6 16 Sudeste 39 Sudeste 0 -- -- 35
2019-02-16 23:00:00 16.7 15 Este 34 Este 0 -- -- 35
2019-02-16 22:00:00 16.7 15 Este 35 Este 0 -- -- 37
2019-02-16 21:00:00 16.9 12 Sudeste 33 Este 0 -- -- 36
2019-02-16 20:00:00 17.7 17 Sudeste 27 Sudeste 0 -- -- 32
2019-02-16 19:00:00 17 5 Sudeste 20 Sur 0 -- -- 33
2019-02-16 18:00:00 20.8 10 Sudeste 28 Sudeste 0 -- -- 24
2019-02-16 17:00:00 21.8 18 Sudeste 32 Sudeste 0 -- -- 23
2019-02-16 16:00:00 22.3 19 Sudeste 36 Sur 0 -- -- 23
2019-02-16 15:00:00 22.5 17 Sudeste 39 Sur 0 -- -- 22
2019-02-16 14:00:00 21.9 16 Sudeste 34 Sur 0 -- -- 22
2019-02-16 13:00:00 21.1 16 Sudeste 35 Este 0 -- -- 24
2019-02-16 12:00:00 16.9 6 Sudeste 19 Sudeste 0 -- -- 40
2019-02-16 11:00:00 13.8 3 Sudoeste 9 Sur 0 -- -- 50
2019-02-16 10:00:00 11.1 0 Calma 6 Noroeste 0 -- -- 54
2019-02-16 09:00:00 7.7 0 Calma 6 Oeste 0 -- -- 61
2019-02-16 08:00:00 7 0 Calma 5 Sudoeste 0 -- -- 64
2019-02-16 07:00:00 7.4 2 Noroeste 6 Norte 0 -- -- 64
2019-02-16 06:00:00 7.9 3 Norte 8 Sudoeste 0 -- -- 64
2019-02-16 05:00:00 7.3 3 Sudoeste 7 Sudeste 0 -- -- 69
2019-02-16 04:00:00 7.8 0 Calma 10 Este 0 -- -- 68
2019-02-16 03:00:00 7.9 3 Sudeste 9 Sur 0 -- -- 68
2019-02-16 02:00:00 7.7 0 Calma 6 Sur 0 -- -- 70
2019-02-16 01:00:00 8.2 2 Este 8 Sur 0 -- -- 68
2019-02-16 00:00:00 8.4 0 Calma 4 Oeste 0 -- -- 68
2019-02-15 23:00:00 9.3 0 Calma 7 Sudoeste 0 -- -- 65
2019-02-15 22:00:00 9.8 4 Oeste 8 Noroeste 0 -- -- 63
2019-02-15 21:00:00 10.6 3 Oeste 6 Oeste 0 -- -- 60
2019-02-15 20:00:00 11.3 0 Calma 3 Sur 0 -- -- 57
2019-02-15 19:00:00 13.7 2 Nordeste 9 Oeste 0 -- -- 50
2019-02-15 18:00:00 18.1 3 Oeste 20 Oeste 0 -- -- 37
2019-02-15 17:00:00 20.6 9 Oeste 21 Oeste 0 -- -- 33
2019-02-15 16:00:00 22.2 7 Oeste 22 Oeste 0 -- -- 33
2019-02-15 15:00:00 23 12 Sudoeste 25 Sudoeste 0 -- -- 30
2019-02-15 14:00:00 22.1 9 Sudoeste 15 Sudoeste 0 -- -- 30
2019-02-15 13:00:00 20.1 8 Sudoeste 13 Sudoeste 0 -- -- 33
2019-02-15 12:00:00 18.1 6 Sur 15 Sur 0 -- -- 36
2019-02-15 11:00:00 15.6 6 Sur 12 Sur 0 -- -- 40
2019-02-15 10:00:00 12.3 4 Sudoeste 13 Sur 0 -- -- 45
2019-02-15 09:00:00 9.8 6 Sur 15 Sudoeste 0 -- -- 51
2019-02-15 08:00:00 10.5 2 Noroeste 6 Oeste 0 -- -- 47
2019-02-15 07:00:00 11.5 3 Norte 15 Sur 0 -- -- 45
2019-02-15 06:00:00 12.9 5 Sudeste 29 Sudeste 0 -- -- 39
2019-02-15 05:00:00 15.6 17 Sudeste 34 Sudeste 0 -- -- 32
2019-02-15 04:00:00 16.1 17 Sudeste 34 Sudeste 0 -- -- 30
2019-02-15 03:00:00 16.4 19 Sudeste 37 Sudeste 0 -- -- 29
2019-02-15 02:00:00 16.6 21 Sudeste 40 Sudeste 0 -- -- 27
2019-02-15 01:00:00 16.7 19 Sudeste 46 Este 0 -- -- 28
2019-02-15 00:00:00 16.8 18 Este 36 Sudeste 0 -- -- 28
2019-02-14 23:00:00 16.8 15 Este 38 Sudeste 0 -- -- 28
2019-02-14 22:00:00 16.7 14 Sudeste 28 Sudeste 0 -- -- 30
2019-02-14 21:00:00 15.2 9 Sudeste 21 Sur 0 -- -- 34
2019-02-14 20:00:00 12.8 4 Noroeste 8 Sudoeste 0 -- -- 51
2019-02-14 19:00:00 14.3 2 Norte 9 Sur 0 -- -- 48
2019-02-14 18:00:00 19.9 4 Sur 25 Sur 0 -- -- 32
2019-02-14 17:00:00 22.1 12 Sur 35 Sudeste 0 -- -- 24
2019-02-14 16:00:00 22.1 18 Sudeste 40 Sur 0 -- -- 24
2019-02-14 15:00:00 22.4 17 Sudeste 39 Sur 0 -- -- 23
2019-02-14 14:00:00 21.7 22 Sudeste 40 Sudeste 0 -- -- 24
2019-02-14 13:00:00 20.2 17 Sudeste 35 Sudeste 0 -- -- 26
2019-02-14 12:00:00 14.8 7 Sudeste 34 Sudeste 0 -- -- 48
2019-02-14 11:00:00 13.2 8 Sudeste 24 Este 0 -- -- 51
2019-02-14 10:00:00 11.7 7 Sudeste 31 Este 0 -- -- 50
2019-02-14 09:00:00 7.7 8 Este 22 Sudeste 0 -- -- 61
2019-02-14 08:00:00 5.4 3 Nordeste 8 Norte 0 -- -- 71
2019-02-14 07:00:00 4.5 2 Norte 7 Nordeste 0 -- -- 78
2019-02-14 06:00:00 4.6 0 Calma 8 Norte 0 -- -- 78
2019-02-14 05:00:00 4.1 0 Calma 7 Sur 0 -- -- 81
2019-02-14 04:00:00 4.3 0 Calma 5 Norte 0 -- -- 83
2019-02-14 03:00:00 4.6 2 Sudeste 4 Este 0 -- -- 81
2019-02-14 02:00:00 5 0 Calma 5 Nordeste 0 -- -- 80
2019-02-14 01:00:00 5.5 0 Calma 9 Oeste 0 -- -- 79
2019-02-14 00:00:00 6.6 3 Oeste 8 Noroeste 0 -- -- 77
2019-02-13 23:00:00 6.2 0 Calma 3 Oeste 0 -- -- 79
2019-02-13 22:00:00 6.9 0 Calma 5 Noroeste 0 -- -- 79
2019-02-13 21:00:00 8.6 4 Oeste 7 Noroeste 0 -- -- 73
2019-02-13 20:00:00 9 0 Calma 3 Noroeste 0 -- -- 74
2019-02-13 19:00:00 10.6 0 Calma 4 Oeste 0 -- -- 68
2019-02-13 18:00:00 15.6 0 Calma 10 Sudoeste 0 -- -- 53
2019-02-13 17:00:00 17.5 9 Sur 19 Oeste 0 -- -- 47
2019-02-13 16:00:00 18.7 9 Sudoeste 21 Oeste 0 -- -- 44
2019-02-13 15:00:00 17.3 7 Sudoeste 19 Oeste 0 -- -- 44
2019-02-13 14:00:00 15.9 6 Oeste 15 Oeste 0 -- -- 45
2019-02-13 13:00:00 15.2 5 Sur 9 Sudoeste 0 -- -- 44
2019-02-13 12:00:00 12.7 4 Sudoeste 8 Sudoeste 0 -- -- 47
2019-02-13 11:00:00 10.5 2 Sudoeste 11 Sudeste 0 -- -- 50
2019-02-13 10:00:00 7.5 3 Sudoeste 8 Sudoeste 0 -- -- 54
2019-02-13 09:00:00 4.3 0 Calma 5 Sudoeste 0 -- -- 64
2019-02-13 08:00:00 4.7 2 Sudoeste 8 Sudoeste 0 -- -- 62
2019-02-13 07:00:00 5.3 0 Calma 6 Sudoeste 0 -- -- 59
2019-02-13 06:00:00 4.4 0 Calma 6 Este 0 -- -- 67
2019-02-13 05:00:00 4.2 2 Nordeste 7 Este 0 -- -- 68
2019-02-13 04:00:00 3.5 0 Calma 6 Nordeste 0 -- -- 73
2019-02-13 03:00:00 3.5 0 Calma 3 Norte 0 -- -- 76
2019-02-13 02:00:00 3.1 0 Calma 2 Sudoeste 0 -- -- 78
2019-02-13 01:00:00 3.3 0 Calma 3 Oeste 0 -- -- 80
2019-02-13 00:00:00 4.2 3 Oeste 5 Oeste 0 -- -- 78
2019-02-12 23:00:00 4.1 0 Calma 2 Oeste 0 -- -- 80
2019-02-12 22:00:00 4.7 2 Oeste 4 Oeste 0 -- -- 82
2019-02-12 21:00:00 5.5 0 Calma 6 Oeste 0 -- -- 78
2019-02-12 20:00:00 6.5 0 Calma 4 Sudoeste 0 -- -- 79
2019-02-12 19:00:00 8.2 0 Calma 3 Sur 0 -- -- 74
2019-02-12 18:00:00 13.1 0 Calma 9 Sudoeste 0 -- -- 57
2019-02-12 17:00:00 15 6 Sudoeste 16 Sur 0 -- -- 50
2019-02-12 16:00:00 15.2 9 Sur 17 Sudoeste 0 -- -- 46
2019-02-12 15:00:00 14.8 8 Sudoeste 16 Sudoeste 0 -- -- 45
2019-02-12 14:00:00 13.5 8 Sudoeste 14 Sudoeste 0 -- -- 47
2019-02-12 13:00:00 12 8 Sur 12 Sudoeste 0 -- -- 50
2019-02-12 12:00:00 9.6 5 Sur 9 Sudoeste 0 -- -- 60
2019-02-12 11:00:00 7 3 Sur 6 Sur 0 -- -- 65
2019-02-12 10:00:00 4.5 2 Nordeste 3 Nordeste 0 -- -- 73
2019-02-12 09:00:00 1 0 Calma 6 Nordeste 0 -- -- 85
2019-02-12 08:00:00 0.9 0 Calma 3 Noroeste 0 -- -- 87
2019-02-12 07:00:00 1.5 0 Calma 4 Noroeste 0 -- -- 88
2019-02-12 06:00:00 1.4 0 Calma 3 Noroeste 0 -- -- 92
2019-02-12 05:00:00 1.9 0 Calma 4 Noroeste 0 -- -- 91
2019-02-12 04:00:00 1.9 0 Calma 6 Norte 0 -- -- 92
2019-02-12 03:00:00 2.4 0 Calma 6 Noroeste 0 -- -- 92
2019-02-12 02:00:00 3.2 0 Calma 9 Nordeste 0 -- -- 92
2019-02-12 01:00:00 3 0 Calma 4 Oeste 0 -- -- 92
2019-02-12 00:00:00 3.1 0 Calma 4 Sudoeste 0 -- -- 92
2019-02-11 23:00:00 3.4 0 Calma 5 Oeste 0 -- -- 92
2019-02-11 22:00:00 4.4 2 Sudoeste 5 Sudoeste 0 -- -- 91
2019-02-11 21:00:00 4.6 0 Calma 3 Este 0 -- -- 89
2019-02-11 20:00:00 6 3 Este 13 Noroeste 0 -- -- 83
2019-02-11 19:00:00 8.5 5 Noroeste 15 Norte 0 -- -- 73
2019-02-11 18:00:00 10.3 8 Oeste 18 Oeste 0 -- -- 60
2019-02-11 17:00:00 12.2 8 Sur 21 Sudoeste 0 -- -- 54
2019-02-11 16:00:00 12.4 8 Sudoeste 19 Sudoeste 0 -- -- 52
2019-02-11 15:00:00 12.9 10 Sudoeste 19 Oeste 0 -- -- 53
2019-02-11 14:00:00 12.6 8 Sudoeste 16 Sudoeste 0 -- -- 59
2019-02-11 13:00:00 10.6 7 Sur 11 Sur 0 -- -- 64
2019-02-11 12:00:00 7 0 Calma 5 Sudoeste 0 -- -- 81
2019-02-11 11:00:00 5.8 2 Sur 4 Sur 0 -- -- 88
2019-02-11 10:00:00 5.3 4 Sur 9 Sur 0 -- -- 86
2019-02-11 09:00:00 3.3 0 Calma 4 Oeste 0 -- -- 95
2019-02-11 08:00:00 2.9 2 Oeste 4 Oeste 0 -- -- 98
2019-02-11 07:00:00 2.4 0 Calma 3 Noroeste 0 -- -- 96
2019-02-11 06:00:00 3.9 2 Noroeste 6 Oeste 0 -- -- 93
2019-02-11 05:00:00 4.4 0 Calma 5 Sudeste 0 -- -- 95
2019-02-11 04:00:00 4.8 2 Nordeste 8 Sudoeste 0 -- -- 93
2019-02-11 03:00:00 5.2 0 Calma 8 Norte 0 -- -- 93
2019-02-11 02:00:00 5.1 3 Noroeste 6 Noroeste 0 -- -- 92
2019-02-11 01:00:00 5.2 0 Calma 5 Norte 0 -- -- 93
2019-02-11 00:00:00 5.2 2 Nordeste 5 Nordeste 0 -- -- 93
2019-02-10 23:00:00 6.1 4 Nordeste 7 Nordeste 0 -- -- 90
2019-02-10 22:00:00 6.1 3 Nordeste 6 Oeste 0.2 -- -- 95
2019-02-10 21:00:00 6.2 2 Nordeste 4 Nordeste 0.4 -- -- 96
2019-02-10 20:00:00 6.5 0 Calma 8 Norte 0.2 -- -- 94
2019-02-10 19:00:00 6.8 0 Calma 5 Norte 0 -- -- 90
2019-02-10 18:00:00 7.1 3 Norte 12 Norte 0 -- -- 85
2019-02-10 17:00:00 7.4 3 Noroeste 14 Norte 0.6 -- -- 89
2019-02-10 16:00:00 8 6 Nordeste 17 Este 0 -- -- 86
2019-02-10 15:00:00 9.2 4 Norte 9 Norte 0 -- -- 84
2019-02-10 14:00:00 9.6 4 Norte 17 Oeste 0 -- -- 80
2019-02-10 13:00:00 10.4 5 Sudoeste 17 Norte 0 -- -- 76
2019-02-10 12:00:00 9.2 6 Este 15 Oeste 0 -- -- 84
2019-02-10 11:00:00 8.9 5 Este 19 Nordeste 0.6 -- -- 84
2019-02-10 10:00:00 9.3 6 Norte 18 Norte 2 -- -- 86
2019-02-10 09:00:00 11 5 Noroeste 50 Este 1 -- -- 86
2019-02-10 08:00:00 14.5 27 Sudeste 65 Este 0 -- -- 52
2019-02-10 07:00:00 13.9 27 Sudeste 60 Sur 0 -- -- 54
2019-02-10 06:00:00 13.5 30 Sudeste 56 Sudeste 0 -- -- 57
2019-02-10 05:00:00 14.1 26 Sudeste 62 Sudeste 0 -- -- 51
2019-02-10 04:00:00 13.6 23 Sudeste 80 Sur 0 -- -- 52
2019-02-10 03:00:00 13.3 28 Sudeste 60 Sudeste 0 -- -- 52
2019-02-10 02:00:00 13.4 27 Sudeste 62 Sur 0 -- -- 52
2019-02-10 01:00:00 13.9 30 Sudeste 53 Sur 0 -- -- 49
2019-02-10 00:00:00 14 23 Sudeste 46 Sudeste 0 -- -- 48
2019-02-09 23:00:00 14 19 Sudeste 49 Sudeste 0 -- -- 48
2019-02-09 22:00:00 14 25 Sudeste 59 Sur 0 -- -- 49
2019-02-09 21:00:00 13.9 23 Este 51 Este 0 -- -- 50
2019-02-09 20:00:00 13.7 19 Sudeste 45 Sur 0 -- -- 51
2019-02-09 19:00:00 13.6 18 Sudeste 41 Sudeste 0 -- -- 52
2019-02-09 18:00:00 13.7 18 Este 39 Este 0 -- -- 51
2019-02-09 17:00:00 13.5 20 Sudeste 54 Sur 0 -- -- 52
2019-02-09 16:00:00 14.3 24 Sudeste 47 Sudeste 0 -- -- 50
2019-02-09 15:00:00 14.6 21 Sudeste 54 Este 0 -- -- 48
2019-02-09 14:00:00 14.5 23 Sudeste 43 Este 0 -- -- 51
2019-02-09 13:00:00 14.3 19 Este 44 Este 0 -- -- 49
2019-02-09 12:00:00 14.1 22 Sudeste 46 Sudeste 0 -- -- 48
2019-02-09 11:00:00 13.3 22 Sudeste 46 Sudeste 0 -- -- 51
2019-02-09 10:00:00 12.1 20 Sudeste 41 Este 0 -- -- 55
2019-02-09 09:00:00 11.2 23 Sudeste 43 Sudeste 0 -- -- 59
2019-02-09 08:00:00 11.2 20 Sudeste 41 Sudeste 0 -- -- 60
2019-02-09 07:00:00 11.4 18 Sudeste 35 Sudeste 0 -- -- 59
2019-02-09 06:00:00 11.1 6 Sudeste 28 Sudeste 0 -- -- 62
2019-02-09 05:00:00 12.4 15 Sudeste 31 Sudeste 0 -- -- 56
2019-02-09 04:00:00 12.6 16 Sudeste 35 Sudeste 0 -- -- 55
2019-02-09 03:00:00 12.9 18 Sudeste 30 Sudeste 0 -- -- 54
2019-02-09 02:00:00 13 18 Sudeste 31 Este 0 -- -- 52
2019-02-09 01:00:00 13.1 17 Sudeste 33 Sudeste 0 -- -- 52
2019-02-09 00:00:00 13.2 19 Sudeste 38 Sudeste 0 -- -- 52
2019-02-08 23:00:00 13.1 20 Sudeste 36 Este 0 -- -- 53
2019-02-08 22:00:00 13 14 Este 38 Sudeste 0 -- -- 52
2019-02-08 21:00:00 12.9 18 Este 40 Este 0 -- -- 52
2019-02-08 20:00:00 13 15 Sudeste 34 Este 0 -- -- 52
2019-02-08 19:00:00 13.5 19 Sudeste 36 Este 0 -- -- 50
2019-02-08 18:00:00 14.7 16 Sudeste 29 Sudeste 0 -- -- 43
2019-02-08 17:00:00 13.1 2 Sudoeste 10 Sur 0 -- -- 66
2019-02-08 16:00:00 13.6 4 Sur 21 Sudoeste 0 -- -- 64
2019-02-08 15:00:00 13.9 12 Sudoeste 20 Oeste 0 -- -- 63
2019-02-08 14:00:00 12.8 8 Sudoeste 17 Sudoeste 0 -- -- 69
2019-02-08 13:00:00 11.4 9 Sudoeste 15 Sur 0 -- -- 72
2019-02-08 12:00:00 9 5 Sur 8 Sur 0 -- -- 82
2019-02-08 11:00:00 6.3 3 Sudoeste 7 Oeste 0 -- -- 92
2019-02-08 10:00:00 3.7 0 Calma 4 Oeste 0 -- -- 100
2019-02-08 09:00:00 2.2 0 Calma 2 Norte 0 -- -- 100
2019-02-08 08:00:00 2.2 0 Calma 4 Norte 0 -- -- 99
2019-02-08 07:00:00 2.3 0 Calma 3 Noroeste 0 -- -- 100
2019-02-08 06:00:00 2.9 2 Norte 6 Norte 0 -- -- 100
2019-02-08 05:00:00 3 0 Calma 4 Norte 0 -- -- 100
2019-02-08 04:00:00 3.2 0 Calma 6 Norte 0 -- -- 97
2019-02-08 03:00:00 3.7 2 Noroeste 5 Noroeste 0 -- -- 98
2019-02-08 02:00:00 4.1 0 Calma 3 Norte 0 -- -- 97
2019-02-08 01:00:00 4.8 2 Norte 5 Norte 0 -- -- 94
2019-02-08 00:00:00 5.3 0 Calma 3 Norte 0 -- -- 93
2019-02-07 23:00:00 6.8 0 Calma 3 Norte 0 -- -- 90
2019-02-07 22:00:00 7.8 0 Calma 2 Nordeste 0 -- -- 89
2019-02-07 21:00:00 8.4 0 Calma 6 Noroeste 0 -- -- 87
2019-02-07 20:00:00 8.9 3 Noroeste 12 Oeste 0 -- -- 83
2019-02-07 19:00:00 9.3 2 Noroeste 12 Noroeste 0 -- -- 82
2019-02-07 18:00:00 10 6 Noroeste 13 Noroeste 0 -- -- 78
2019-02-07 17:00:00 10.9 6 Noroeste 14 Oeste 0 -- -- 74
2019-02-07 16:00:00 11.6 6 Sudoeste 16 Oeste 0 -- -- 73
2019-02-07 15:00:00 13.1 8 Sudoeste 18 Sudoeste 0 -- -- 67
2019-02-07 14:00:00 12.3 10 Sudoeste 16 Sudoeste 0 -- -- 75
2019-02-07 13:00:00 9.5 3 Sur 10 Sudoeste 0 -- -- 87
2019-02-07 12:00:00 8.2 0 Calma 3 Sudeste 0 -- -- 96
2019-02-07 11:00:00 7.4 3 Sudeste 8 Este 0 -- -- 98
2019-02-07 10:00:00 7 0 Calma 6 Oeste 0.6 -- -- 98
2019-02-07 09:00:00 7.1 3 Noroeste 9 Norte 0 -- -- 90
2019-02-07 08:00:00 7.3 0 Calma 6 Noroeste 0 -- -- 86
2019-02-07 07:00:00 6.7 0 Calma 4 Noroeste 0 -- -- 87
2019-02-07 06:00:00 6.4 0 Calma 3 Noroeste 0 -- -- 87
2019-02-07 05:00:00 6.4 0 Calma 5 Oeste 0 -- -- 89
2019-02-07 04:00:00 7.3 3 Noroeste 6 Oeste 0 -- -- 84
2019-02-07 03:00:00 7.8 0 Calma 6 Noroeste 0 -- -- 87
2019-02-07 02:00:00 8.1 2 Nordeste 5 Nordeste 0 -- -- 86
2019-02-07 01:00:00 8.5 0 Calma 6 Norte 0 -- -- 90
2019-02-07 00:00:00 8.3 3 Oeste 8 Sudoeste 0 -- -- 94
2019-02-06 23:00:00 7.9 0 Calma 3 Norte 0 -- -- 98
2019-02-06 22:00:00 7.1 0 Calma 5 Noroeste 0 -- -- 97
2019-02-06 21:00:00 7.7 2 Norte 5 Oeste 0 -- -- 94
2019-02-06 20:00:00 9.5 2 Noroeste 6 Oeste 0 -- -- 88
2019-02-06 19:00:00 11.1 0 Calma 4 Sudoeste 0 -- -- 83
2019-02-06 18:00:00 13.4 0 Calma 5 Oeste 0 -- -- 74
2019-02-06 17:00:00 14.9 4 Oeste 14 Oeste 0 -- -- 66
2019-02-06 16:00:00 16.1 4 Sudoeste 14 Sudoeste 0 -- -- 63
2019-02-06 15:00:00 16.3 8 Sur 19 Sudoeste 0 -- -- 58
2019-02-06 14:00:00 14.6 9 Sudoeste 17 Sudoeste 0 -- -- 64
2019-02-06 13:00:00 13.5 4 Sudoeste 9 Sur 0 -- -- 69
2019-02-06 12:00:00 11.2 3 Sur 8 Sur 0 -- -- 73
2019-02-06 11:00:00 8.8 2 Sur 5 Sudeste 0 -- -- 81
2019-02-06 10:00:00 6.3 0 Calma 4 Oeste 0 -- -- 89
2019-02-06 09:00:00 4.2 0 Calma 3 Oeste 0 -- -- 92
2019-02-06 08:00:00 4.9 3 Oeste 7 Oeste 0 -- -- 90
2019-02-06 07:00:00 3.9 0 Calma 4 Nordeste 0 -- -- 93
2019-02-06 06:00:00 3.7 0 Calma 3 Norte 0 -- -- 94
2019-02-06 05:00:00 3.9 0 Calma 5 Sur 0 -- -- 94
2019-02-06 04:00:00 4.1 0 Calma 4 Sur 0 -- -- 94
2019-02-06 03:00:00 4.3 0 Calma 4 Sudeste 0 -- -- 94
2019-02-06 02:00:00 4.6 0 Calma 4 Sudeste 0 -- -- 95
2019-02-06 01:00:00 4.7 0 Calma 5 Este 0 -- -- 94
2019-02-06 00:00:00 5.1 0 Calma 6 Nordeste 0 -- -- 93
2019-02-05 23:00:00 6.2 2 Noroeste 5 Nordeste 0 -- -- 91
2019-02-05 22:00:00 6.7 3 Oeste 6 Oeste 0 -- -- 92
2019-02-05 21:00:00 7.2 3 Oeste 5 Oeste 0 -- -- 90
2019-02-05 20:00:00 7.5 0 Calma 3 Sudoeste 0 -- -- 89
2019-02-05 19:00:00 9.2 0 Calma 2 Sur 0 -- -- 83
2019-02-05 18:00:00 13 0 Calma 15 Oeste 0 -- -- 71
2019-02-05 17:00:00 15.1 7 Oeste 22 Noroeste 0 -- -- 63
2019-02-05 16:00:00 15.8 9 Oeste 27 Oeste 0 -- -- 62
2019-02-05 15:00:00 16.8 11 Sudoeste 22 Oeste 0 -- -- 57
2019-02-05 14:00:00 16.1 10 Sudoeste 17 Sudoeste 0 -- -- 60
2019-02-05 13:00:00 14.4 7 Sudoeste 12 Sur 0 -- -- 63
2019-02-05 12:00:00 12.1 5 Sudoeste 9 Sudoeste 0 -- -- 71
2019-02-05 11:00:00 9.8 4 Sur 10 Sudeste 0 -- -- 76
2019-02-05 10:00:00 6.5 2 Sudoeste 9 Sudoeste 0 -- -- 89
2019-02-05 09:00:00 4.6 0 Calma 4 Sudoeste 0 -- -- 95
2019-02-05 08:00:00 5 2 Sur 5 Sur 0 -- -- 94
2019-02-05 07:00:00 4.9 0 Calma 4 Sudoeste 0 -- -- 93
2019-02-05 06:00:00 6.3 0 Calma 5 Oeste 0 -- -- 88
2019-02-05 05:00:00 8 0 Calma 9 Sur 0 -- -- 85
2019-02-05 04:00:00 8.4 0 Calma 6 Noroeste 0 -- -- 85
2019-02-05 03:00:00 8.6 0 Calma 9 Sur 0 -- -- 82
2019-02-05 02:00:00 8.6 0 Calma 10 Norte 0 -- -- 83
2019-02-05 01:00:00 8.5 2 Oeste 9 Sur 0 -- -- 82
2019-02-05 00:00:00 8.7 0 Calma 5 Sur 0 -- -- 82
2019-02-04 23:00:00 8.8 0 Calma 8 Sur 0 -- -- 80
2019-02-04 22:00:00 8.8 0 Calma 6 Sur 0 -- -- 81
2019-02-04 21:00:00 9.1 0 Calma 9 Sur 0 -- -- 80
2019-02-04 20:00:00 9.7 2 Noroeste 15 Sur 0 -- -- 81
2019-02-04 19:00:00 9.8 2 Sur 11 Sur 0 -- -- 78
2019-02-04 18:00:00 11 0 Calma 12 Sur 0 -- -- 75
2019-02-04 17:00:00 12.4 2 Sudeste 10 Sur 0.4 -- -- 65
2019-02-04 16:00:00 12.6 0 Calma 18 Sur 0 -- -- 63
2019-02-04 15:00:00 12.8 9 Sur 20 Sur 0 -- -- 62
2019-02-04 14:00:00 12.7 9 Sur 20 Sur 0 -- -- 59
2019-02-04 13:00:00 9.4 3 Sudoeste 9 Este 0 -- -- 56
2019-02-04 12:00:00 8.3 4 Sudoeste 14 Sur 0 -- -- 53
2019-02-04 11:00:00 6.8 8 Sur 14 Sur 0 -- -- 53
2019-02-04 10:00:00 5.4 2 Sudeste 11 Este 0 -- -- 54
2019-02-04 09:00:00 4 3 Noroeste 16 Sur 0 -- -- 59
2019-02-04 08:00:00 3.6 5 Nordeste 19 Sur 0 -- -- 60
2019-02-04 07:00:00 2.7 3 Sur 8 Sur 0 -- -- 63
2019-02-04 06:00:00 2.7 3 Sudoeste 9 Sur 0 -- -- 65
2019-02-04 05:00:00 2.3 3 Sur 19 Sur 0 -- -- 67
2019-02-04 04:00:00 2.2 2 Sudeste 13 Sudoeste 0 -- -- 68
2019-02-04 03:00:00 1.7 2 Noroeste 9 Sur 0 -- -- 75
2019-02-04 02:00:00 1.2 3 Norte 12 Noroeste 0 -- -- 76
2019-02-04 01:00:00 0.7 4 Este 9 Sudeste 0 -- -- 82
2019-02-04 00:00:00 0.7 0 Calma 6 Este 0 -- -- 84
2019-02-03 23:00:00 0.7 0 Calma 5 Noroeste 0 -- -- 85
2019-02-03 22:00:00 1.7 3 Sudoeste 8 Sur 0 -- -- 82
2019-02-03 21:00:00 1.6 2 Noroeste 10 Norte 0 -- -- 83
2019-02-03 20:00:00 2.3 0 Calma 6 Sudoeste 0 -- -- 81
2019-02-03 19:00:00 3.2 0 Calma 6 Sudoeste 0 -- -- 79
2019-02-03 18:00:00 6.5 3 Sudoeste 6 Sur 0 -- -- 68
2019-02-03 17:00:00 9 3 Sur 15 Sur 0 -- -- 55
2019-02-03 16:00:00 9.9 10 Sudoeste 22 Oeste 0 -- -- 56
2019-02-03 15:00:00 9.5 9 Sudoeste 16 Sur 0 -- -- 58
2019-02-03 14:00:00 9 8 Sudoeste 15 Sur 0 -- -- 62
2019-02-03 13:00:00 7.6 4 Sur 10 Sur 0 -- -- 75
2019-02-03 12:00:00 5.4 4 Sudoeste 8 Sur 0 -- -- 91
2019-02-03 11:00:00 3.4 3 Oeste 5 Oeste 0 -- -- 92
2019-02-03 10:00:00 1.1 0 Calma 3 Nordeste 0 -- -- 100
2019-02-03 09:00:00 0.2 0 Calma 3 Nordeste 0 -- -- 100
2019-02-03 08:00:00 0.4 0 Calma 4 Nordeste 0 -- -- 99
2019-02-03 07:00:00 0.9 3 Sudeste 7 Este 0.2 -- -- 99
2019-02-03 06:00:00 1.2 4 Oeste 13 Oeste 0 -- -- 99
2019-02-03 05:00:00 0.7 2 Norte 7 Norte 0 -- -- 99
2019-02-03 04:00:00 1.3 5 Norte 8 Norte 0 -- -- 98
2019-02-03 03:00:00 1.6 0 Calma 4 Noroeste 0 -- -- 98
2019-02-03 02:00:00 1.7 3 Noroeste 8 Norte 0.6 -- -- 97
2019-02-03 01:00:00 2.1 0 Calma 6 Nordeste 0 -- -- 97
2019-02-03 00:00:00 2.1 3 Norte 13 Norte 0.4 -- -- 95
2019-02-02 23:00:00 3.1 6 Noroeste 20 Noroeste 0.8 -- -- 93
2019-02-02 22:00:00 2.9 0 Calma 12 Norte 0.2 -- -- 96
2019-02-02 21:00:00 2.7 4 Nordeste 18 Norte 1.8 -- -- 95
2019-02-02 20:00:00 3.4 4 Norte 10 Sudeste 0.2 -- -- 92
2019-02-02 19:00:00 3.7 4 Este 15 Oeste 0 -- -- 90
2019-02-02 18:00:00 3.5 2 Este 10 Nordeste 0.4 -- -- 92
2019-02-02 17:00:00 4.1 2 Norte 12 Sudeste 0.4 -- -- 91
2019-02-02 16:00:00 3.4 4 Sudeste 11 Sudoeste 1.4 -- -- 95
2019-02-02 15:00:00 4.5 6 Nordeste 14 Norte 0 -- -- 86
2019-02-02 14:00:00 3.8 4 Nordeste 17 Nordeste 0.4 -- -- 94
2019-02-02 13:00:00 4 3 Sudoeste 22 Noroeste 1 -- -- 87
2019-02-02 12:00:00 3.3 4 Oeste 15 Noroeste 1.6 -- -- 94
2019-02-02 11:00:00 2.3 5 Norte 11 Oeste 1.4 -- -- 96
2019-02-02 10:00:00 2.1 4 Sudoeste 36 Norte 1 -- -- 94
2019-02-02 09:00:00 2.6 3 Oeste 15 Noroeste 1 -- -- 92
2019-02-02 08:00:00 2.6 5 Oeste 24 Oeste 2 -- -- 92
2019-02-02 07:00:00 3.8 4 Este 16 Nordeste 0.4 -- -- 87
2019-02-02 06:00:00 3.8 3 Este 18 Oeste 0.2 -- -- 86
2019-02-02 05:00:00 2.9 7 Oeste 36 Oeste 1.4 -- -- 92
2019-02-02 04:00:00 3.2 5 Noroeste 25 Noroeste 1.8 -- -- 93
2019-02-02 03:00:00 3.3 6 Sudoeste 30 Oeste 3.6 -- -- 92
2019-02-02 02:00:00 3 6 Noroeste 27 Nordeste 4.4 -- -- 92
2019-02-02 01:00:00 4.9 10 Noroeste 32 Noroeste 1.4 -- -- 85
2019-02-02 00:00:00 4.2 9 Este 37 Oeste 4 -- -- 91
2019-02-01 23:00:00 4.3 10 Nordeste 37 Noroeste 8.4 -- -- 91
2019-02-01 22:00:00 5.8 9 Nordeste 40 Noroeste 5.4 -- -- 89
2019-02-01 21:00:00 5 5 Este 26 Oeste 4.6 -- -- 91
2019-02-01 20:00:00 4.4 5 Nordeste 15 Sur 1.2 -- -- 91
2019-02-01 19:00:00 4.2 8 Sudeste 35 Oeste 2.2 -- -- 87
2019-02-01 18:00:00 7.8 5 Sudeste 22 Noroeste 0 -- -- 57
2019-02-01 17:00:00 8.4 6 Este 18 Sudoeste 0 -- -- 57
2019-02-01 16:00:00 7.8 9 Sudeste 22 Este 0 -- -- 63
2019-02-01 15:00:00 6.4 5 Sudeste 21 Sur 0 -- -- 83
2019-02-01 14:00:00 5.3 9 Sur 41 Sur 0.4 -- -- 85
2019-02-01 13:00:00 6 22 Sur 37 Este 0 -- -- 72
2019-02-01 12:00:00 7.9 13 Este 45 Este 0 -- -- 64
2019-02-01 11:00:00 6.4 20 Sudeste 41 Sudeste 0.2 -- -- 71
2019-02-01 10:00:00 6.4 17 Sudeste 41 Sudeste 0.2 -- -- 75
2019-02-01 09:00:00 8.6 21 Sudeste 46 Sudeste 0 -- -- 48
2019-02-01 08:00:00 8.5 17 Sudeste 41 Sudeste 0.2 -- -- 52
2019-02-01 07:00:00 7.3 6 Este 40 Sudeste 0 -- -- 68
2019-02-01 06:00:00 8.4 19 Sudeste 42 Sur 0 -- -- 62
2019-02-01 05:00:00 8.2 12 Sudeste 30 Este 0 -- -- 70
2019-02-01 04:00:00 6.4 3 Sudoeste 9 Noroeste 0 -- -- 96
2019-02-01 03:00:00 6.5 4 Noroeste 12 Oeste 0 -- -- 97
2019-02-01 02:00:00 5.8 0 Calma 5 Norte 0 -- -- 98
2019-02-01 01:00:00 7 5 Norte 9 Norte 0 -- -- 93
2019-02-01 00:00:00 7.6 0 Calma 8 Norte 0 -- -- 88
2019-01-31 23:00:00 8.8 2 Oeste 6 Nordeste 0 -- -- 91
2019-01-31 22:00:00 9.3 0 Calma 7 Sudoeste 0 -- -- 94
2019-01-31 21:00:00 9.4 0 Calma 7 Noroeste 0 -- -- 99
2019-01-31 20:00:00 9.7 3 Noroeste 8 Noroeste 0 -- -- 98
2019-01-31 19:00:00 10.1 5 Oeste 15 Este 2.2 -- -- 96
2019-01-31 18:00:00 11.1 4 Oeste 16 Nordeste 3.6 -- -- 94
2019-01-31 17:00:00 12.3 5 Sudoeste 21 Nordeste 3.6 -- -- 92
2019-01-31 16:00:00 14.4 5 Norte 18 Noroeste 0 -- -- 81
2019-01-31 15:00:00 16.7 11 Sudeste 32 Este 0 -- -- 57
2019-01-31 14:00:00 16.7 14 Sudeste 39 Sudeste 0 -- -- 59
2019-01-31 13:00:00 15.4 23 Sudeste 39 Sudeste 0 -- -- 60
2019-01-31 12:00:00 14.6 17 Sudeste 39 Sudeste 0 -- -- 64
2019-01-31 11:00:00 13.7 23 Sudeste 44 Sudeste 0 -- -- 66
2019-01-31 10:00:00 12.7 20 Sudeste 40 Sudeste 0 -- -- 71
2019-01-31 09:00:00 12.2 19 Sudeste 43 Sudeste 0 -- -- 73
2019-01-31 08:00:00 11.1 22 Sudeste 41 Sudeste 0.2 -- -- 77
2019-01-31 07:00:00 11.3 21 Sudeste 42 Sudeste 0 -- -- 75
2019-01-31 06:00:00 10.3 15 Sudeste 33 Sur 1 -- -- 84
2019-01-31 05:00:00 10.5 12 Sudeste 35 Sur 0.4 -- -- 84
2019-01-31 04:00:00 10 9 Sudeste 30 Sudeste 0.6 -- -- 87
2019-01-31 03:00:00 9.5 17 Sur 42 Sudeste 0.2 -- -- 85
2019-01-31 02:00:00 9.9 20 Sudeste 50 Sur 0.2 -- -- 78
2019-01-31 01:00:00 9.6 24 Sudeste 49 Sur 0.6 -- -- 78
2019-01-31 00:00:00 9.2 22 Sudeste 46 Sudeste 0.2 -- -- 77
2019-01-30 23:00:00 8.9 24 Sudeste 43 Sudeste 0.4 -- -- 78
2019-01-30 22:00:00 9 22 Sudeste 48 Sudeste 0.2 -- -- 72
2019-01-30 21:00:00 7.8 27 Sudeste 47 Sudeste 1 -- -- 79
2019-01-30 20:00:00 7.6 23 Sudeste 50 Sudeste 0.8 -- -- 79
2019-01-30 19:00:00 7.4 19 Sudeste 45 Sudeste 0.8 -- -- 79
2019-01-30 18:00:00 8.1 24 Sudeste 50 Este 0.4 -- -- 73
2019-01-30 17:00:00 7.8 19 Sudeste 42 Este 0.4 -- -- 73
2019-01-30 16:00:00 9 22 Sudeste 42 Sudeste 0 -- -- 61
2019-01-30 15:00:00 10.1 21 Sudeste 41 Sudeste 0 -- -- 50
2019-01-30 14:00:00 10.5 15 Sudeste 43 Sur 0 -- -- 43
2019-01-30 13:00:00 9.8 17 Sudeste 35 Sudeste 0 -- -- 45
2019-01-30 12:00:00 9.2 17 Sudeste 31 Este 0 -- -- 46
2019-01-30 11:00:00 7.9 13 Sudeste 30 Sudeste 0 -- -- 55
2019-01-30 10:00:00 4.9 6 Sudeste 14 Sur 0 -- -- 71
2019-01-30 09:00:00 4.1 3 Este 13 Sudoeste 0 -- -- 74
2019-01-30 08:00:00 5.4 5 Sur 12 Este 0 -- -- 67
2019-01-30 07:00:00 5.3 0 Calma 14 Norte 0 -- -- 75
2019-01-30 06:00:00 6 6 Nordeste 16 Norte 0 -- -- 65
2019-01-30 05:00:00 5.8 5 Nordeste 24 Sur 0 -- -- 68
2019-01-30 04:00:00 5.8 7 Sur 23 Noroeste 0 -- -- 73
2019-01-30 03:00:00 5.4 2 Este 26 Oeste 0 -- -- 76
2019-01-30 02:00:00 5.7 4 Norte 12 Norte 0 -- -- 76
2019-01-30 01:00:00 5.3 5 Norte 20 Oeste 0 -- -- 78
2019-01-30 00:00:00 5.6 4 Norte 12 Este 0 -- -- 75
2019-01-29 23:00:00 5.5 8 Norte 20 Nordeste 0 -- -- 76
2019-01-29 22:00:00 5.1 3 Noroeste 21 Norte 0.8 -- -- 86
2019-01-29 21:00:00 5.7 9 Norte 18 Nordeste 0.2 -- -- 83
2019-01-29 20:00:00 5.7 6 Norte 32 Norte 1.2 -- -- 85
2019-01-29 19:00:00 6.3 11 Oeste 32 Oeste 1.6 -- -- 85
2019-01-29 18:00:00 6.7 5 Nordeste 29 Norte 1.4 -- -- 85
2019-01-29 17:00:00 7.6 10 Nordeste 37 Oeste 0.4 -- -- 79
2019-01-29 16:00:00 8.3 13 Nordeste 32 Norte 1.4 -- -- 82
2019-01-29 15:00:00 8.4 14 Norte 43 Oeste 1.8 -- -- 83
2019-01-29 14:00:00 9.8 15 Sudoeste 45 Oeste 1.4 -- -- 82
2019-01-29 13:00:00 10 11 Sudeste 35 Sudeste 0.4 -- -- 77
2019-01-29 12:00:00 10.5 22 Sudeste 37 Sur 0.2 -- -- 69
2019-01-29 11:00:00 11.1 17 Sudeste 38 Sudeste 0 -- -- 59
2019-01-29 10:00:00 10.6 12 Sudeste 43 Sur 0 -- -- 62
2019-01-29 09:00:00 9.7 17 Sudeste 33 Sur 0 -- -- 67
2019-01-29 08:00:00 9.6 19 Sudeste 38 Sudeste 0 -- -- 70
2019-01-29 07:00:00 8.7 20 Sudeste 37 Sudeste 0 -- -- 75
2019-01-29 06:00:00 8.1 18 Sudeste 33 Sudeste 0 -- -- 74
2019-01-29 05:00:00 7.3 3 Noroeste 21 Sur 0 -- -- 79
2019-01-29 04:00:00 6.6 5 Sur 14 Sudeste 0 -- -- 83
2019-01-29 03:00:00 6.5 5 Sudeste 15 Este 0 -- -- 83
2019-01-29 02:00:00 5.9 3 Sudoeste 7 Nordeste 0 -- -- 89
2019-01-29 01:00:00 6.3 3 Oeste 9 Oeste 0 -- -- 88
2019-01-29 00:00:00 6.3 0 Calma 8 Sudoeste 0 -- -- 88
2019-01-28 23:00:00 6 2 Oeste 9 Sudeste 0 -- -- 88
2019-01-28 22:00:00 6.5 3 Norte 9 Norte 0 -- -- 83
2019-01-28 21:00:00 7.2 5 Norte 12 Noroeste 0 -- -- 82
2019-01-28 20:00:00 7.1 4 Norte 12 Nordeste 0.2 -- -- 86
2019-01-28 19:00:00 7.5 4 Norte 12 Norte 0 -- -- 83
2019-01-28 18:00:00 7.5 4 Norte 15 Noroeste 0 -- -- 88
2019-01-28 17:00:00 7.7 2 Sudeste 15 Este 0.4 -- -- 88
2019-01-28 16:00:00 8.1 4 Sudoeste 21 Noroeste 0.8 -- -- 84
2019-01-28 15:00:00 8.1 5 Sur 22 Norte 0.4 -- -- 85
2019-01-28 14:00:00 8.2 4 Sudeste 26 Noroeste 1 -- -- 85
2019-01-28 13:00:00 7.9 7 Oeste 26 Sudoeste 2.4 -- -- 88
2019-01-28 12:00:00 8.2 5 Noroeste 28 Norte 2.2 -- -- 87
2019-01-28 11:00:00 8.2 6 Norte 32 Oeste 3.4 -- -- 89
2019-01-28 10:00:00 8.3 5 Norte 24 Noroeste 2 -- -- 93
2019-01-28 09:00:00 8.8 8 Nordeste 34 Oeste 0.4 -- -- 87
2019-01-28 08:00:00 9.1 6 Nordeste 23 Nordeste 0.2 -- -- 81
2019-01-28 07:00:00 9 10 Oeste 28 Sudoeste 0 -- -- 84
2019-01-28 06:00:00 8.6 8 Norte 22 Nordeste 0.4 -- -- 87
2019-01-28 05:00:00 8.6 10 Nordeste 27 Norte 0.2 -- -- 86
2019-01-28 04:00:00 8.4 8 Norte 23 Nordeste 0 -- -- 84
2019-01-28 03:00:00 7.7 8 Norte 30 Nordeste 0.2 -- -- 86
2019-01-28 02:00:00 6.2 6 Este 15 Sudoeste 0 -- -- 88
2019-01-28 01:00:00 6 5 Sudeste 19 Sur 0 -- -- 85
2019-01-28 00:00:00 5.6 5 Este 19 Nordeste 0.2 -- -- 88
2019-01-27 23:00:00 5.7 9 Este 18 Este 0.2 -- -- 85
2019-01-27 22:00:00 5.4 4 Sudeste 13 Noroeste 0.2 -- -- 90
2019-01-27 21:00:00 6.2 5 Norte 13 Oeste 0.2 -- -- 79
2019-01-27 20:00:00 5.8 4 Este 22 Oeste 0 -- -- 88
2019-01-27 19:00:00 6.5 5 Norte 21 Oeste 0 -- -- 83
2019-01-27 18:00:00 6.3 3 Noroeste 12 Nordeste 0.2 -- -- 87
2019-01-27 17:00:00 6.9 7 Noroeste 26 Oeste 0 -- -- 80
2019-01-27 16:00:00 6.8 5 Norte 18 Oeste 0.2 -- -- 85
2019-01-27 15:00:00 7.4 6 Oeste 16 Oeste 0 -- -- 82
2019-01-27 14:00:00 6.6 6 Norte 26 Sudoeste 0.6 -- -- 85
2019-01-27 13:00:00 6.9 3 Nordeste 24 Noroeste 1.6 -- -- 86
2019-01-27 12:00:00 7.5 6 Oeste 22 Sudoeste 0.2 -- -- 78
2019-01-27 11:00:00 6.2 7 Norte 21 Norte 2.2 -- -- 87
2019-01-27 10:00:00 6.6 6 Norte 15 Norte 1 -- -- 84
2019-01-27 09:00:00 6.6 6 Norte 17 Oeste 0.4 -- -- 80
2019-01-27 08:00:00 7.1 6 Nordeste 24 Nordeste 0 -- -- 76
2019-01-27 07:00:00 6.9 8 Norte 24 Nordeste 0.6 -- -- 76
2019-01-27 06:00:00 6.8 9 Nordeste 27 Noroeste 0.6 -- -- 83
2019-01-27 05:00:00 7.4 5 Norte 30 Norte 0.6 -- -- 81
2019-01-27 04:00:00 7.7 6 Nordeste 35 Noroeste 1.6 -- -- 86
2019-01-27 03:00:00 7.9 7 Noroeste 19 Nordeste 1 -- -- 90
2019-01-27 02:00:00 7.1 4 Nordeste 10 Nordeste 0.4 -- -- 89
2019-01-27 01:00:00 7.4 2 Sudoeste 15 Sudoeste 0 -- -- 76
2019-01-27 00:00:00 5.8 4 Noroeste 15 Sudoeste 0 -- -- 84
2019-01-26 23:00:00 5.2 0 Calma 7 Noroeste 0 -- -- 85
2019-01-26 22:00:00 5.4 2 Nordeste 8 Oeste 0 -- -- 88
2019-01-26 21:00:00 7.1 3 Noroeste 11 Noroeste 0 -- -- 82
2019-01-26 20:00:00 7.4 5 Noroeste 11 Sudoeste 0 -- -- 87
2019-01-26 19:00:00 7.5 2 Sudoeste 13 Sur 0 -- -- 89
2019-01-26 18:00:00 9 2 Sudoeste 6 Sudoeste 0 -- -- 87
2019-01-26 17:00:00 10.9 4 Sudoeste 17 Oeste 0 -- -- 80
2019-01-26 16:00:00 13.1 7 Sur 15 Sudoeste 0 -- -- 70
2019-01-26 15:00:00 11.9 3 Sudoeste 13 Sur 0 -- -- 68
2019-01-26 14:00:00 10.5 5 Sur 12 Oeste 0 -- -- 77
2019-01-26 13:00:00 9.2 6 Oeste 10 Sudoeste 0 -- -- 82
2019-01-26 12:00:00 8 4 Sur 8 Sur 0 -- -- 83
2019-01-26 11:00:00 5.9 2 Oeste 5 Oeste 0 -- -- 90
2019-01-26 10:00:00 2.7 2 Noroeste 8 Oeste 0 -- -- 99
2019-01-26 09:00:00 1.7 0 Calma 3 Norte 0 -- -- 98
2019-01-26 08:00:00 1.8 0 Calma 3 Norte 0 -- -- 98
2019-01-26 07:00:00 2 0 Calma 5 Norte 0 -- -- 97
2019-01-26 06:00:00 2.5 0 Calma 5 Noroeste 0 -- -- 97
2019-01-26 05:00:00 3.4 3 Oeste 5 Sur 0 -- -- 97
2019-01-26 04:00:00 3.2 0 Calma 6 Sur 0 -- -- 97
2019-01-26 03:00:00 3.9 0 Calma 6 Sur 0 -- -- 98
2019-01-26 02:00:00 4.5 0 Calma 3 Norte 0 -- -- 99
2019-01-26 01:00:00 5.6 0 Calma 3 Norte 0 -- -- 96
2019-01-26 00:00:00 6.8 0 Calma 2 Norte 0 -- -- 99
2019-01-25 23:00:00 6.7 0 Calma 2 Norte 0 -- -- 98
2019-01-25 22:00:00 7 0 Calma 3 Norte 0 -- -- 98
2019-01-25 21:00:00 7.1 0 Calma 3 Norte 0 -- -- 96
2019-01-25 20:00:00 7.9 0 Calma 4 Norte 0 -- -- 94
2019-01-25 19:00:00 8.5 0 Calma 5 Noroeste 0 -- -- 94
2019-01-25 18:00:00 8.8 0 Calma 9 Este 0 -- -- 94
2019-01-25 17:00:00 9.3 5 Sudoeste 15 Noroeste 0 -- -- 89
2019-01-25 16:00:00 10.3 2 Sur 5 Sur 0 -- -- 87
2019-01-25 15:00:00 10.2 3 Sur 6 Sur 0 -- -- 91
2019-01-25 14:00:00 9.8 4 Sur 10 Noroeste 0 -- -- 93
2019-01-25 13:00:00 10.1 4 Sur 9 Oeste 0 -- -- 92
2019-01-25 12:00:00 9.2 2 Este 6 Este 0 -- -- 96
2019-01-25 11:00:00 8.5 0 Calma 4 Noroeste 0 -- -- 100
2019-01-25 10:00:00 8.1 3 Noroeste 5 Noroeste 0.2 -- -- 100
2019-01-25 09:00:00 8.1 0 Calma 4 Noroeste 0.2 -- -- 100
2019-01-25 08:00:00 8.2 0 Calma 5 Norte 0.6 -- -- 100
2019-01-25 07:00:00 8.3 0 Calma 6 Noroeste 0.2 -- -- 100
2019-01-25 06:00:00 8.3 2 Noroeste 6 Noroeste 0.2 -- -- 100
2019-01-25 05:00:00 8.4 0 Calma 8 Oeste 0.4 -- -- 100
2019-01-25 04:00:00 8.5 0 Calma 3 Norte 0.2 -- -- 100
2019-01-25 03:00:00 8.6 0 Calma 6 Norte 0.4 -- -- 100
2019-01-25 02:00:00 8.6 4 Norte 6 Norte 0.6 -- -- 100
2019-01-25 01:00:00 8.6 0 Calma 3 Noroeste 0.2 -- -- 100
2019-01-25 00:00:00 8.7 2 Noroeste 11 Noroeste 0.2 -- -- 100
2019-01-24 23:00:00 9 4 Noroeste 13 Noroeste 0.6 -- -- 100
2019-01-24 22:00:00 9.1 4 Noroeste 12 Noroeste 0.2 -- -- 100
2019-01-24 21:00:00 9.1 0 Calma 6 Sudoeste 0.2 -- -- 100
2019-01-24 20:00:00 9.4 5 Oeste 14 Noroeste 0.2 -- -- 98
2019-01-24 19:00:00 9.4 4 Oeste 10 Oeste 0.6 -- -- 100
2019-01-24 18:00:00 9.5 0 Calma 5 Oeste 0.8 -- -- 100
2019-01-24 17:00:00 9.8 2 Oeste 9 Noroeste 1 -- -- 100
2019-01-24 16:00:00 9.8 3 Noroeste 13 Norte 1.6 -- -- 100
2019-01-24 15:00:00 9.8 2 Oeste 8 Oeste 1.2 -- -- 100
2019-01-24 14:00:00 10 0 Calma 17 Norte 1.8 -- -- 99
2019-01-24 13:00:00 9.9 2 Noroeste 14 Norte 2.4 -- -- 99
2019-01-24 12:00:00 10.1 8 Oeste 19 Oeste 2.4 -- -- 96
2019-01-24 11:00:00 10 5 Noroeste 14 Oeste 2.6 -- -- 98
2019-01-24 10:00:00 9.7 5 Oeste 13 Oeste 2.2 -- -- 100
2019-01-24 09:00:00 10 6 Noroeste 21 Oeste 1 -- -- 97
2019-01-24 08:00:00 10.2 4 Norte 22 Oeste 1.2 -- -- 96
2019-01-24 07:00:00 10 8 Oeste 25 Oeste 2 -- -- 97
2019-01-24 06:00:00 10.3 8 Noroeste 23 Norte 1.2 -- -- 94
2019-01-24 05:00:00 10 5 Norte 20 Norte 3 -- -- 97
2019-01-24 04:00:00 10.1 8 Oeste 27 Norte 6.4 -- -- 95
2019-01-24 03:00:00 10.2 9 Norte 40 Noroeste 4 -- -- 92
2019-01-24 02:00:00 10 9 Oeste 35 Norte 3.8 -- -- 94
2019-01-24 01:00:00 9.9 8 Noroeste 27 Noroeste 2.6 -- -- 94
2019-01-24 00:00:00 9.2 5 Oeste 28 Noroeste 1.4 -- -- 97